createdAt,value
2022-09-06T00:01:12.231Z,100157.72
2022-09-06T00:03:40.138Z,100163.44
2022-09-06T00:06:13.283Z,100168.53
2022-09-06T00:08:41.124Z,100160.38
2022-09-06T00:11:09.222Z,100156.09
2022-09-06T00:13:37.789Z,100163.78
2022-09-06T00:16:08.028Z,100169.16
2022-09-06T00:18:37.618Z,100151.38
2022-09-06T00:21:05.829Z,100144.47
2022-09-06T00:23:33.569Z,100143.94
2022-09-06T00:26:05.346Z,100143.66
2022-09-06T00:28:33.179Z,100151.78
2022-09-06T00:31:09.312Z,100148.41
2022-09-06T00:33:38.635Z,100153.25
2022-09-06T00:36:06.487Z,100158.69
2022-09-06T00:38:34.126Z,100146.97
2022-09-06T00:41:01.924Z,100145.84
2022-09-06T00:43:29.845Z,100143.50
2022-09-06T00:45:58.357Z,100152.47
2022-09-06T00:48:26.312Z,100150.25
2022-09-06T00:50:59.697Z,100146.66
2022-09-06T00:53:28.033Z,100146.16
2022-09-06T00:55:56.884Z,100152.97
2022-09-06T00:58:25.860Z,100157.00
2022-09-06T01:00:53.801Z,100157.50
2022-09-06T01:03:22.698Z,100156.38
2022-09-06T01:06:05.486Z,100153.84
2022-09-06T01:08:47.059Z,100155.75
2022-09-06T01:11:31.599Z,100153.28
2022-09-06T01:14:12.134Z,100156.56
2022-09-06T01:16:44.745Z,100154.47
2022-09-06T01:19:35.787Z,100164.09
2022-09-06T01:22:19.815Z,100163.19
2022-09-06T01:25:01.593Z,100165.00
2022-09-06T01:27:56.649Z,100163.88
2022-09-06T01:30:25.879Z,100167.34
2022-09-06T01:33:01.649Z,100166.59
2022-09-06T01:35:34.490Z,100171.59
2022-09-06T01:38:03.125Z,100175.06
2022-09-06T01:40:30.740Z,100170.69
2022-09-06T01:42:59.773Z,100172.84
2022-09-06T01:45:39.752Z,100160.06
2022-09-06T01:48:13.405Z,100163.34
2022-09-06T01:50:59.769Z,100161.16
2022-09-06T01:53:50.308Z,100168.75
2022-09-06T01:56:31.559Z,100162.69
2022-09-06T01:59:35.177Z,100165.69
2022-09-06T02:02:07.213Z,100163.44
2022-09-06T02:04:42.017Z,100168.13
2022-09-06T02:07:16.000Z,100208.66
2022-09-06T02:09:46.959Z,100299.03
2022-09-06T02:12:17.875Z,100280.03
2022-09-06T02:14:52.243Z,100260.63
2022-09-06T02:17:24.831Z,100289.44
2022-09-06T02:19:58.045Z,100263.44
2022-09-06T02:22:30.087Z,100263.03
2022-09-06T02:25:00.425Z,100260.84
2022-09-06T02:27:31.045Z,100250.78
2022-09-06T02:30:02.892Z,100245.31
2022-09-06T02:32:32.796Z,100249.69
2022-09-06T02:35:00.511Z,100250.59
2022-09-06T02:37:28.494Z,100252.03
2022-09-06T02:39:56.668Z,100243.13
2022-09-06T02:42:25.960Z,100239.59
2022-09-06T02:44:53.561Z,100236.41
2022-09-06T02:47:22.478Z,100230.69
2022-09-06T02:49:50.569Z,100223.69
2022-09-06T02:52:18.253Z,100214.69
2022-09-06T02:54:46.002Z,100193.47
2022-09-06T02:57:14.098Z,100183.69
2022-09-06T02:59:41.887Z,100173.06
2022-09-06T03:02:09.786Z,100175.34
2022-09-06T03:04:38.777Z,100179.16
2022-09-06T03:07:06.390Z,100202.09
2022-09-06T03:09:34.018Z,100192.22
2022-09-06T03:12:01.618Z,100190.31
2022-09-06T03:14:29.853Z,100190.28
2022-09-06T03:16:57.644Z,100178.78
2022-09-06T03:19:25.308Z,100173.88
2022-09-06T03:21:54.266Z,100170.06
2022-09-06T03:24:21.960Z,100169.22
2022-09-06T03:26:49.583Z,100163.47
2022-09-06T03:29:17.182Z,100154.19
2022-09-06T03:31:44.809Z,100146.59
2022-09-06T03:34:12.432Z,100134.63
2022-09-06T03:36:40.147Z,100134.13
2022-09-06T03:39:09.192Z,100112.84
2022-09-06T03:41:38.852Z,100105.47
2022-09-06T03:44:06.553Z,100111.16
2022-09-06T03:46:34.277Z,100127.16
2022-09-06T03:49:01.981Z,100132.63
2022-09-06T03:51:29.674Z,100118.63
2022-09-06T03:53:57.680Z,100118.16
2022-09-06T03:56:26.700Z,100114.81
2022-09-06T03:58:54.742Z,100103.69
2022-09-06T04:01:22.394Z,100106.44
2022-09-06T04:03:50.209Z,100102.84
2022-09-06T04:06:17.948Z,100101.94
2022-09-06T04:08:45.767Z,100116.59
2022-09-06T04:11:13.835Z,100109.22
2022-09-06T04:13:42.996Z,100117.59
2022-09-06T04:16:11.313Z,100129.63
2022-09-06T04:18:38.949Z,100128.22
2022-09-06T04:21:07.040Z,100124.91
2022-09-06T04:23:39.657Z,100140.28
2022-09-06T04:26:07.622Z,100132.59
2022-09-06T04:28:35.459Z,100126.00
2022-09-06T04:31:05.641Z,100120.88
2022-09-06T04:33:35.236Z,100122.59
2022-09-06T04:36:04.780Z,100131.00
2022-09-06T04:38:36.946Z,100134.19
2022-09-06T04:41:05.334Z,100128.84
2022-09-06T04:43:33.010Z,100135.00
2022-09-06T04:46:06.050Z,100136.38
2022-09-06T04:48:34.052Z,100139.28
2022-09-06T04:51:01.714Z,100135.97
2022-09-06T04:53:29.363Z,100134.59
2022-09-06T04:55:58.053Z,100152.56
2022-09-06T04:58:26.279Z,100144.06
2022-09-06T05:00:54.151Z,100142.25
2022-09-06T05:03:23.164Z,100144.50
2022-09-06T05:05:50.762Z,100155.38
2022-09-06T05:08:18.821Z,100149.34
2022-09-06T05:10:46.459Z,100158.63
2022-09-06T05:13:14.218Z,100161.16
2022-09-06T05:15:43.223Z,100153.25
2022-09-06T05:18:14.160Z,100152.22
2022-09-06T05:20:45.010Z,100149.38
2022-09-06T05:23:12.678Z,100147.47
2022-09-06T05:25:40.346Z,100147.56
2022-09-06T05:28:08.005Z,100157.66
2022-09-06T05:30:35.699Z,100162.69
2022-09-06T05:33:03.337Z,100155.63
2022-09-06T05:35:31.023Z,100158.47
2022-09-06T05:38:00.186Z,100168.66
2022-09-06T05:40:27.942Z,100170.13
2022-09-06T05:42:55.637Z,100172.97
2022-09-06T05:45:23.601Z,100181.97
2022-09-06T05:47:51.250Z,100183.25
2022-09-06T05:50:19.030Z,100199.38
2022-09-06T05:52:47.413Z,100204.69
2022-09-06T05:55:16.495Z,100202.13
2022-09-06T05:57:44.149Z,100204.66
2022-09-06T06:00:13.432Z,100201.13
2022-09-06T06:02:41.164Z,100211.06
2022-09-06T06:05:09.399Z,100207.44
2022-09-06T06:07:37.023Z,100201.25
2022-09-06T06:10:05.378Z,100191.94
2022-09-06T06:12:34.417Z,100183.16
2022-09-06T06:15:02.343Z,100180.03
2022-09-06T06:17:30.052Z,100184.22
2022-09-06T06:19:58.312Z,100176.13
2022-09-06T06:22:25.990Z,100179.53
2022-09-06T06:24:53.720Z,100172.31
2022-09-06T06:27:21.464Z,100163.53
2022-09-06T06:29:50.590Z,100171.53
2022-09-06T06:32:18.292Z,100174.66
2022-09-06T06:34:45.967Z,100164.88
2022-09-06T06:37:13.712Z,100162.22
2022-09-06T06:39:41.411Z,100149.31
2022-09-06T06:42:09.247Z,100162.66
2022-09-06T06:44:36.977Z,100166.44
2022-09-06T06:47:07.135Z,100168.63
2022-09-06T06:49:34.815Z,100164.81
2022-09-06T06:52:02.476Z,100168.94
2022-09-06T06:54:30.741Z,100175.16
2022-09-06T06:56:58.389Z,100174.94
2022-09-06T06:59:26.030Z,100177.25
2022-09-06T07:01:53.809Z,100168.88
2022-09-06T07:04:23.171Z,100170.97
2022-09-06T07:12:28.003Z,100191.72
2022-09-06T07:14:55.644Z,100194.78
2022-09-06T07:17:23.487Z,100190.56
2022-09-06T07:22:41.211Z,100202.81
2022-09-06T07:25:10.445Z,100193.22
2022-09-06T07:30:14.205Z,100191.44
2022-09-06T07:32:41.941Z,100196.06
2022-09-06T07:35:12.289Z,100193.19
2022-09-06T07:37:40.056Z,100196.22
2022-09-06T07:40:08.711Z,100199.06
2022-09-06T07:42:36.923Z,100189.75
2022-09-06T07:45:05.115Z,100187.81
2022-09-06T07:53:13.985Z,100204.59
2022-09-06T07:55:45.280Z,100202.78
2022-09-06T07:58:12.942Z,100211.75
2022-09-06T08:00:41.127Z,100205.47
2022-09-06T08:03:09.093Z,100206.19
2022-09-06T08:11:14.502Z,100200.53
2022-09-06T08:13:42.384Z,100203.97
2022-09-06T08:16:12.713Z,100208.09
2022-09-06T08:18:40.432Z,100184.84
2022-09-06T08:21:12.863Z,100191.75
2022-09-06T08:23:43.053Z,100196.59
2022-09-06T08:26:10.683Z,100195.63
2022-09-06T08:28:39.813Z,100194.88
2022-09-06T08:31:09.538Z,100194.81
2022-09-06T08:33:37.603Z,100202.25
2022-09-06T08:36:06.583Z,100199.75
2022-09-06T08:38:38.480Z,100199.50
2022-09-06T08:41:12.000Z,100201.00
2022-09-06T08:43:40.135Z,100191.94
2022-09-06T08:46:09.409Z,100190.47
2022-09-06T08:48:39.860Z,100192.09
2022-09-06T08:51:28.284Z,100189.38
2022-09-06T08:54:05.933Z,100188.31
2022-09-06T08:56:38.435Z,100189.38
2022-09-06T08:59:07.890Z,100190.59
2022-09-06T09:01:47.116Z,100180.00
2022-09-06T09:04:21.297Z,100176.06
2022-09-06T09:06:53.230Z,100183.09
2022-09-06T09:09:22.486Z,100174.28
2022-09-06T09:11:52.057Z,100172.16
2022-09-06T09:14:23.791Z,100177.22
2022-09-06T09:16:52.390Z,100169.09
2022-09-06T09:19:20.002Z,100176.91
2022-09-06T09:21:47.901Z,100169.41
2022-09-06T09:24:16.813Z,100172.06
2022-09-06T09:26:52.772Z,100164.19
2022-09-06T09:29:26.797Z,100156.75
2022-09-06T09:31:56.698Z,100165.69
2022-09-06T09:34:33.561Z,100156.50
2022-09-06T09:40:07.930Z,100160.41
2022-09-06T09:42:38.446Z,100148.28
2022-09-06T09:45:23.530Z,100137.06
2022-09-06T09:47:51.247Z,100140.34
2022-09-06T09:50:25.799Z,100130.63
2022-09-06T09:52:53.469Z,100131.09
2022-09-06T09:55:24.286Z,100131.41
2022-09-06T09:57:54.842Z,100133.53
2022-09-06T10:00:39.796Z,100122.69
2022-09-06T10:03:15.305Z,100135.13
2022-09-06T10:05:44.287Z,100129.28
2022-09-06T10:08:14.067Z,100130.81
2022-09-06T10:10:44.083Z,100121.91
2022-09-06T10:13:20.655Z,100125.94
2022-09-06T10:15:49.625Z,100115.78
2022-09-06T10:18:29.740Z,100113.97
2022-09-06T10:21:00.516Z,100110.34
2022-09-06T10:26:33.606Z,100111.28
2022-09-06T10:29:06.108Z,100106.47
2022-09-06T10:31:57.315Z,100105.72
2022-09-06T10:34:42.686Z,100121.91
2022-09-06T10:37:25.201Z,100112.00
2022-09-06T10:39:57.017Z,100114.75
2022-09-06T10:42:36.571Z,100101.00
2022-09-06T10:45:21.526Z,100097.94
2022-09-06T10:47:57.126Z,100101.06
2022-09-06T10:50:30.141Z,100106.50
2022-09-06T10:53:05.347Z,100104.88
2022-09-06T10:55:33.516Z,100112.22
2022-09-06T10:58:20.638Z,100093.91
2022-09-06T11:00:53.694Z,100093.34
2022-09-06T11:06:18.373Z,100081.97
2022-09-06T11:08:53.399Z,100083.16
2022-09-06T11:11:27.279Z,100078.09
2022-09-06T11:13:54.858Z,100070.47
2022-09-06T11:16:27.393Z,100072.84
2022-09-06T11:19:00.066Z,100078.31
2022-09-06T11:21:57.315Z,100077.94
2022-09-06T11:24:41.405Z,100070.22
2022-09-06T11:27:16.663Z,100070.03
2022-09-06T11:29:47.862Z,100066.56
2022-09-06T11:32:32.822Z,100062.72
2022-09-06T11:35:04.396Z,100060.09
2022-09-06T11:37:34.827Z,100062.28
2022-09-06T11:43:39.637Z,100062.53
2022-09-06T11:46:07.377Z,100056.22
2022-09-06T11:48:49.845Z,100049.91
2022-09-06T11:51:34.473Z,100055.31
2022-09-06T11:54:07.272Z,100046.22
2022-09-06T11:56:41.687Z,100048.66
2022-09-06T11:59:24.420Z,100033.84
2022-09-06T12:02:02.027Z,100037.31
2022-09-06T12:05:08.008Z,100036.19
2022-09-06T12:07:38.742Z,100025.91
2022-09-06T12:10:39.614Z,100035.19
2022-09-06T12:13:41.452Z,100024.78
2022-09-06T12:16:10.086Z,100020.38
2022-09-06T12:18:56.034Z,100024.81
2022-09-06T12:21:47.406Z,100023.00
2022-09-06T12:24:55.037Z,100030.50
2022-09-06T12:27:24.371Z,100025.16
2022-09-06T12:29:59.294Z,100023.41
2022-09-06T12:32:33.631Z,100027.72
2022-09-06T12:37:58.361Z,100024.75
2022-09-06T12:40:30.389Z,100015.78
2022-09-06T12:42:59.104Z,100005.19
2022-09-06T12:45:27.715Z,100005.03
2022-09-06T12:48:07.123Z,99995.59
2022-09-06T12:50:34.913Z,99995.13
2022-09-06T12:53:04.585Z,99993.81
2022-09-06T12:55:36.069Z,99997.03
2022-09-06T12:58:06.248Z,99995.09
2022-09-06T13:00:37.980Z,99999.66
2022-09-06T13:03:17.680Z,99993.31
2022-09-06T13:05:47.201Z,99976.56
2022-09-06T13:08:18.793Z,99977.03
2022-09-06T13:10:48.689Z,99975.06
2022-09-06T13:13:20.655Z,99970.34
2022-09-06T13:15:48.473Z,99969.34
2022-09-06T13:18:27.820Z,99965.13
2022-09-06T13:21:00.513Z,99957.91
2022-09-06T13:23:28.869Z,99954.41
2022-09-06T13:25:58.253Z,99959.06
2022-09-06T13:28:28.574Z,99955.44
2022-09-06T13:31:09.122Z,99956.47
2022-09-06T13:33:38.314Z,99961.63
2022-09-06T13:36:20.275Z,99961.78
2022-09-06T13:38:47.954Z,99952.88
2022-09-06T13:41:42.854Z,99950.09
2022-09-06T13:44:28.355Z,99950.75
2022-09-06T13:46:56.463Z,99946.56
2022-09-06T13:49:24.696Z,99946.69
2022-09-06T13:51:53.917Z,99949.78
2022-09-06T13:54:22.698Z,99944.72
2022-09-06T13:56:51.663Z,99938.97
2022-09-06T13:59:20.239Z,99939.44
2022-09-06T14:01:50.885Z,99936.84
2022-09-06T14:04:21.487Z,99936.19
2022-09-06T14:06:50.839Z,99933.28
2022-09-06T14:09:18.816Z,99924.66
2022-09-06T14:11:48.366Z,99920.56
2022-09-06T14:14:18.538Z,99920.72
2022-09-06T14:16:47.576Z,99915.88
2022-09-06T14:19:15.949Z,99918.66
2022-09-06T14:21:44.348Z,99911.47
2022-09-06T14:24:12.215Z,99913.75
2022-09-06T14:26:40.074Z,99915.41
2022-09-06T14:29:08.159Z,99912.63
2022-09-06T14:31:37.401Z,99909.88
2022-09-06T14:34:05.119Z,99911.44
2022-09-06T14:36:34.188Z,99898.88
2022-09-06T14:39:02.763Z,99899.94
2022-09-06T14:41:30.493Z,99905.91
2022-09-06T14:43:59.493Z,99901.25
2022-09-06T14:46:29.667Z,99893.09
2022-09-06T14:49:00.867Z,99889.00
2022-09-06T14:51:29.328Z,99885.25
2022-09-06T14:53:59.262Z,99874.63
2022-09-06T14:56:27.234Z,99877.22
2022-09-06T14:58:57.383Z,99877.00
2022-09-06T15:01:27.192Z,99870.59
2022-09-06T15:03:57.024Z,99866.00
2022-09-06T15:06:27.947Z,99872.47
2022-09-06T15:08:59.132Z,99874.63
2022-09-06T15:11:33.293Z,99864.88
2022-09-06T15:14:01.495Z,99852.78
2022-09-06T15:16:29.904Z,99861.97
2022-09-06T15:18:58.401Z,99854.97
2022-09-06T15:21:27.478Z,99857.13
2022-09-06T15:23:55.444Z,99848.22
2022-09-06T15:26:23.118Z,99845.84
2022-09-06T15:28:51.094Z,99856.91
2022-09-06T15:31:19.630Z,99859.81
2022-09-06T15:33:48.874Z,99852.50
2022-09-06T15:36:17.491Z,99859.31
2022-09-06T15:38:48.516Z,99849.59
2022-09-06T15:41:20.249Z,99853.00
2022-09-06T15:43:49.192Z,99863.06
2022-09-06T15:46:18.732Z,99868.59
2022-09-06T15:48:48.721Z,99869.41
2022-09-06T15:51:18.630Z,99867.31
2022-09-06T15:53:48.210Z,99860.94
2022-09-06T15:56:17.529Z,99861.38
2022-09-06T15:58:46.443Z,99866.41
2022-09-06T16:01:15.866Z,99874.69
2022-09-06T16:03:46.303Z,99875.47
2022-09-06T16:06:25.818Z,99863.59
2022-09-06T16:08:59.348Z,99864.66
2022-09-06T16:11:28.276Z,99867.97
2022-09-06T16:13:56.016Z,99866.63
2022-09-06T16:16:24.101Z,99872.59
2022-09-06T16:18:52.975Z,99885.06
2022-09-06T16:21:23.975Z,99885.00
2022-09-06T16:23:53.468Z,99887.09
2022-09-06T16:26:23.271Z,99880.09
2022-09-06T16:28:52.761Z,99882.28
2022-09-06T16:31:22.328Z,99887.63
2022-09-06T16:33:52.928Z,99896.91
2022-09-06T16:36:22.441Z,99908.03
2022-09-06T16:38:53.193Z,99903.47
2022-09-06T16:41:25.812Z,99886.25
2022-09-06T16:43:53.804Z,99884.50
2022-09-06T16:46:23.281Z,99874.22
2022-09-06T16:48:54.839Z,99869.78
2022-09-06T16:51:25.784Z,99871.72
2022-09-06T16:53:53.955Z,99874.28
2022-09-06T16:56:25.617Z,99883.69
2022-09-06T16:59:01.663Z,99895.59
2022-09-06T17:01:31.237Z,99908.88
2022-09-06T17:04:01.819Z,99933.06
2022-09-06T17:06:30.395Z,99938.56
2022-09-06T17:08:59.209Z,99938.31
2022-09-06T17:11:29.415Z,99951.72
2022-09-06T17:13:58.378Z,99955.69
2022-09-06T17:16:44.517Z,99964.88
2022-09-06T17:19:13.430Z,99984.31
2022-09-06T17:21:41.145Z,100008.16
2022-09-06T17:24:09.645Z,100019.63
2022-09-06T17:26:40.259Z,100016.78
2022-09-06T17:29:08.623Z,100009.81
2022-09-06T17:31:37.784Z,100025.63
2022-09-06T17:34:07.662Z,100033.97
2022-09-06T17:36:35.828Z,100048.00
2022-09-06T17:39:05.969Z,100049.16
2022-09-06T17:41:37.791Z,100050.53
2022-09-06T17:44:11.417Z,100046.28
2022-09-06T17:46:47.954Z,100046.28
2022-09-06T17:49:25.959Z,100039.47
2022-09-06T17:51:54.185Z,100048.22
2022-09-06T17:54:23.415Z,100056.72
2022-09-06T17:56:51.096Z,100060.53
2022-09-06T17:59:23.184Z,100066.81
2022-09-06T18:01:58.041Z,100054.78
2022-09-06T18:04:26.285Z,100050.38
2022-09-06T18:06:53.920Z,100059.34
2022-09-06T18:09:21.588Z,100056.34
2022-09-06T18:11:49.378Z,100065.09
2022-09-06T18:14:21.112Z,100052.78
2022-09-06T18:16:53.137Z,100056.59
2022-09-06T18:19:22.259Z,100045.09
2022-09-06T18:21:50.159Z,100035.78
2022-09-06T18:24:18.266Z,100032.53
2022-09-06T18:26:46.443Z,100029.28
2022-09-06T18:29:16.585Z,100018.66
2022-09-06T18:31:45.801Z,100004.19
2022-09-06T18:34:16.430Z,99992.69
2022-09-06T18:36:44.089Z,99980.16
2022-09-06T18:39:13.154Z,99976.59
2022-09-06T18:41:58.533Z,99976.56
2022-09-06T18:44:30.212Z,99965.38
2022-09-06T18:47:01.158Z,99954.75
2022-09-06T18:49:31.258Z,99948.97
2022-09-06T18:51:59.525Z,99930.91
2022-09-06T18:54:27.185Z,99922.13
2022-09-06T18:56:55.732Z,99909.56
2022-09-06T18:59:23.733Z,99890.31
2022-09-06T19:01:51.596Z,99883.78
2022-09-06T19:04:19.366Z,99878.31
2022-09-06T19:06:48.304Z,99874.53
2022-09-06T19:09:17.563Z,99873.16
2022-09-06T19:11:46.939Z,99866.59
2022-09-06T19:14:14.664Z,99869.84
2022-09-06T19:16:43.849Z,99869.63
2022-09-06T19:19:13.334Z,99872.06
2022-09-06T19:21:42.533Z,99866.59
2022-09-06T19:24:14.523Z,99874.50
2022-09-06T19:26:44.612Z,99867.16
2022-09-06T19:29:15.268Z,99856.50
2022-09-06T19:31:44.094Z,99862.22
2022-09-06T19:34:13.443Z,99852.34
2022-09-06T19:36:41.314Z,99852.88
2022-09-06T19:39:14.248Z,99857.53
2022-09-06T19:41:44.933Z,99859.69
2022-09-06T19:44:13.389Z,99861.56
2022-09-06T19:46:45.768Z,99861.00
2022-09-06T19:49:14.956Z,99847.38
2022-09-06T19:51:43.793Z,99844.69
2022-09-06T19:54:15.324Z,99841.66
2022-09-06T19:56:44.092Z,99836.19
2022-09-06T19:59:13.080Z,99838.59
2022-09-06T20:01:42.458Z,99837.81
2022-09-06T20:04:13.218Z,99834.78
2022-09-06T20:06:41.618Z,99833.66
2022-09-06T20:09:11.010Z,99839.38
2022-09-06T20:11:41.668Z,99846.16
2022-09-06T20:14:09.908Z,99849.34
2022-09-06T20:16:41.376Z,99852.00
2022-09-06T20:19:09.369Z,99844.38
2022-09-06T20:21:36.971Z,99843.78
2022-09-06T20:24:04.721Z,99836.09
2022-09-06T20:26:34.058Z,99839.84
2022-09-06T20:29:04.600Z,99838.22
2022-09-06T20:31:33.700Z,99841.47
2022-09-06T20:34:04.193Z,99848.03
2022-09-06T20:36:32.384Z,99842.00
2022-09-06T20:39:00.071Z,99846.91
2022-09-06T20:41:28.302Z,99849.63
2022-09-06T20:43:57.860Z,99849.63
2022-09-06T20:46:28.559Z,99849.34
2022-09-06T20:48:57.856Z,99852.34
2022-09-06T20:51:25.896Z,99852.34
2022-09-06T20:53:56.047Z,99852.41
2022-09-06T20:56:25.815Z,99854.25
2022-09-06T20:58:55.887Z,99855.69
2022-09-06T21:01:28.005Z,99855.28
2022-09-06T21:04:00.494Z,99850.31
2022-09-06T21:06:46.187Z,99857.34
2022-09-06T21:09:16.860Z,99852.38
2022-09-06T21:11:45.205Z,99855.28
2022-09-06T21:14:13.985Z,99858.53
2022-09-06T21:16:44.214Z,99861.00
2022-09-06T21:19:13.807Z,99863.09
2022-09-06T21:21:42.033Z,99857.44
2022-09-06T21:24:11.005Z,99862.84
2022-09-06T21:26:39.076Z,99859.63
2022-09-06T21:29:07.022Z,99857.94
2022-09-06T21:31:37.182Z,99859.00
2022-09-06T21:34:16.270Z,99860.31
2022-09-06T21:36:48.064Z,99859.75
2022-09-06T21:39:16.188Z,99856.75
2022-09-06T21:41:45.701Z,99847.75
2022-09-06T21:44:13.734Z,99850.66
2022-09-06T21:46:42.316Z,99848.75
2022-09-06T21:49:13.198Z,99858.75
2022-09-06T21:51:41.547Z,99848.75
2022-09-06T21:54:09.363Z,99852.81
2022-09-06T21:56:38.536Z,99856.28
2022-09-06T21:59:06.905Z,99846.50
2022-09-06T22:01:36.759Z,99854.38
2022-09-06T22:04:04.856Z,99846.81
2022-09-06T22:06:35.551Z,99851.13
2022-09-06T22:09:07.643Z,99846.22
2022-09-06T22:11:39.547Z,99848.09
2022-09-06T22:14:09.532Z,99852.47
2022-09-06T22:16:40.223Z,99842.50
2022-09-06T22:19:08.774Z,99841.88
2022-09-06T22:21:38.566Z,99843.78
2022-09-06T22:24:08.480Z,99829.00
2022-09-06T22:26:38.001Z,99834.69
2022-09-06T22:29:07.833Z,99829.25
2022-09-06T22:31:36.094Z,99836.84
2022-09-06T22:34:04.176Z,99827.28
2022-09-06T22:36:31.885Z,99829.25
2022-09-06T22:39:00.988Z,99824.66
2022-09-06T22:41:31.653Z,99829.00
2022-09-06T22:44:00.551Z,99823.06
2022-09-06T22:46:28.792Z,99819.53
2022-09-06T22:48:56.482Z,99809.22
2022-09-06T22:51:24.182Z,99824.16
2022-09-06T22:53:51.890Z,99808.41
2022-09-06T22:56:21.059Z,99808.69
2022-09-06T22:58:48.722Z,99800.81
2022-09-06T23:01:17.710Z,99795.66
2022-09-06T23:03:46.438Z,99784.75
2022-09-06T23:06:14.115Z,99784.47
2022-09-06T23:08:42.383Z,99774.13
2022-09-06T23:11:12.222Z,99777.66
2022-09-06T23:13:43.764Z,99782.91
2022-09-06T23:16:13.438Z,99794.91
2022-09-06T23:18:41.291Z,99797.06
2022-09-06T23:21:10.686Z,99808.50
2022-09-06T23:23:39.275Z,99810.50
2022-09-06T23:26:08.985Z,99813.94
2022-09-06T23:28:37.103Z,99819.38
2022-09-06T23:31:07.573Z,99825.56
2022-09-06T23:33:37.297Z,99820.84
2022-09-06T23:36:06.094Z,99825.72
2022-09-06T23:38:34.427Z,99816.75
2022-09-06T23:41:02.092Z,99812.13
2022-09-06T23:43:30.245Z,99813.28
2022-09-06T23:45:58.478Z,99813.28
2022-09-06T23:48:27.498Z,99822.28
2022-09-06T23:50:55.154Z,99815.81
2022-09-06T23:53:23.327Z,99821.53
2022-09-06T23:55:51.399Z,99824.91
2022-09-06T23:58:19.053Z,99824.09
